Time;durP1;ratioP1;P1;durP2;ratioP2;P2;SDS_P1;SDS_P2;PMS_P1;PMS_P2;Temp;Humidity;BMP_temperature;BMP_pressure;BME280_temperature;BME280_humidity;BME280_pressure;Samples;Min_cycle;Max_cycle;Signal;HPM_P1;HPM_P2
2023/02/09 00:01:46;;;;;;;39.35;18.60;;;;;;;-3.97;100.00;103188.72;5274491;28;20026;-75
2023/02/09 00:04:16;;;;;;;51.90;18.25;;;;;;;-4.04;100.00;103187.06;5282051;28;20024;-75
2023/02/09 00:06:47;;;;;;;43.42;18.35;;;;;;;-4.11;100.00;103185.41;5264967;28;20059;-75
2023/02/09 00:09:17;;;;;;;44.30;17.92;;;;;;;-4.19;100.00;103190.69;5265131;28;20065;-75
2023/02/09 00:14:37;;;;;;;41.30;18.30;;;;;;;-4.32;100.00;103191.69;5265118;28;20034;-75
2023/02/09 00:17:07;;;;;;;43.53;18.60;;;;;;;-4.33;100.00;103194.31;5281198;28;20629;-75
2023/02/09 00:19:38;;;;;;;41.95;18.50;;;;;;;-4.35;100.00;103198.72;5285928;28;20500;-75
2023/02/09 00:22:08;;;;;;;49.70;18.58;;;;;;;-4.39;100.00;103189.16;5267258;28;20027;-75
2023/02/09 00:24:39;;;;;;;48.65;18.10;;;;;;;-4.45;100.00;103188.31;5264942;28;20456;-75
2023/02/09 00:27:09;;;;;;;46.80;18.05;;;;;;;-4.50;100.00;103190.09;5277990;28;20484;-75
2023/02/09 00:29:40;;;;;;;47.95;17.67;;;;;;;-4.52;100.00;103197.13;5264502;28;20055;-75
2023/02/09 00:32:10;;;;;;;43.30;17.63;;;;;;;-4.55;100.00;103194.50;5264409;28;20028;-75
2023/02/09 00:34:41;;;;;;;41.60;17.00;;;;;;;-4.55;100.00;103194.50;5264752;28;20020;-75
2023/02/09 00:37:11;;;;;;;44.47;17.58;;;;;;;-4.58;100.00;103194.53;5246160;28;20024;-75
2023/02/09 00:39:42;;;;;;;41.28;17.77;;;;;;;-4.59;100.00;103187.56;5264371;28;20077;-75
2023/02/09 00:42:12;;;;;;;42.47;17.15;;;;;;;-4.61;100.00;103196.31;5246600;28;20024;-75
2023/02/09 00:44:42;;;;;;;39.67;17.13;;;;;;;-4.59;100.00;103199.78;5246933;28;20354;-75
2023/02/09 00:47:13;;;;;;;39.88;16.13;;;;;;;-4.59;100.00;103199.78;5246036;28;20077;-75
2023/02/09 00:49:43;;;;;;;38.53;16.73;;;;;;;-4.59;100.00;103202.41;5268191;28;20032;-75
2023/02/09 00:52:14;;;;;;;40.25;16.30;;;;;;;-4.60;100.00;103198.91;5285557;28;20135;-75
2023/02/09 00:54:44;;;;;;;43.50;16.45;;;;;;;-4.58;100.00;103204.13;5280477;28;20440;-75
2023/02/09 00:57:15;;;;;;;38.88;17.45;;;;;;;-4.57;100.00;103198.00;5264538;28;20031;-75
2023/02/09 00:59:45;;;;;;;34.05;15.70;;;;;;;-4.58;100.00;103201.53;5271174;28;20464;-75
2023/02/09 01:02:15;;;;;;;42.05;16.58;;;;;;;-4.59;100.00;103199.78;5272116;28;20026;-75
2023/02/09 01:04:46;;;;;;;38.47;16.35;;;;;;;-4.61;100.00;103209.41;5277474;28;20130;-75
2023/02/09 01:07:16;;;;;;;40.10;16.80;;;;;;;-4.62;100.00;103215.50;5248021;28;20062;-75
2023/02/09 01:09:47;;;;;;;38.17;17.35;;;;;;;-4.67;100.00;103210.31;5284952;28;20114;-75
2023/02/09 01:12:17;;;;;;;43.35;16.85;;;;;;;-4.70;100.00;103218.22;5263583;28;20138;-75
2023/02/09 01:14:48;;;;;;;35.92;16.30;;;;;;;-4.75;100.00;103206.91;5264507;28;20112;-75
2023/02/09 01:17:18;;;;;;;40.75;15.57;;;;;;;-4.78;100.00;103209.53;5269585;28;20465;-75
2023/02/09 01:19:52;;;;;;;36.10;15.05;;;;;;;-4.80;100.00;103209.53;5277802;28;20073;-75
2023/02/09 01:22:22;;;;;;;39.20;15.55;;;;;;;-4.84;100.00;103218.28;5268277;28;20362;-75
2023/02/09 01:24:53;;;;;;;33.60;14.60;;;;;;;-4.87;100.00;103206.94;5267952;28;20028;-75
2023/02/09 01:27:23;;;;;;;33.63;15.60;;;;;;;-4.89;100.00;103209.59;5249885;28;20024;-75
2023/02/09 01:29:53;;;;;;;36.83;14.35;;;;;;;-4.92;100.00;103212.22;5268189;28;20100;-75
2023/02/09 01:32:24;;;;;;;33.42;13.65;;;;;;;-4.92;100.00;103211.34;5268184;28;20020;-75
2023/02/09 01:34:55;;;;;;;28.63;14.23;;;;;;;-4.92;100.00;103216.59;5282045;28;20032;-75
2023/02/09 01:37:25;;;;;;;36.05;14.05;;;;;;;-4.92;100.00;103203.50;5268130;28;20472;-75
2023/02/09 01:39:56;;;;;;;34.22;14.60;;;;;;;-4.89;100.00;103209.59;5249760;28;20107;-75
2023/02/09 01:42:26;;;;;;;36.20;14.55;;;;;;;-4.87;100.00;103207.84;5268618;28;20048;-75
2023/02/09 01:45:06;;;;;;;27.40;12.70;;;;;;;-4.83;100.00;103200.81;5268260;28;20105;-75
2023/02/09 01:47:43;;;;;;;31.70;13.85;;;;;;;-4.83;100.00;103206.06;5281222;28;20428;-75
2023/02/09 01:50:15;;;;;;;33.75;12.68;;;;;;;-4.86;100.00;103199.13;5267709;28;20469;-75
2023/02/09 01:52:48;;;;;;;33.42;12.68;;;;;;;-4.90;100.00;103194.75;5281428;28;20468;-75
2023/02/09 01:55:24;;;;;;;30.73;13.07;;;;;;;-4.94;100.00;103198.28;5267949;28;20020;-75
2023/02/09 01:58:02;;;;;;;33.85;13.10;;;;;;;-4.99;100.00;103192.19;5285117;28;20524;-75
2023/02/09 02:00:32;;;;;;;24.95;13.05;;;;;;;-5.05;100.00;103187.88;5275259;28;20095;-75
2023/02/09 02:03:08;;;;;;;33.85;12.98;;;;;;;-5.11;100.00;103189.66;5289121;28;20421;-75
2023/02/09 02:05:45;;;;;;;35.08;14.20;;;;;;;-5.17;100.00;103179.22;5269284;28;20232;-76
2023/02/09 02:08:35;;;;;;;32.33;14.20;;;;;;;-5.20;100.00;103182.72;5267510;28;20028;-75
2023/02/09 02:11:07;;;;;;;32.83;14.65;;;;;;;-5.22;100.00;103182.75;5267451;28;20024;-76
2023/02/09 02:13:38;;;;;;;31.33;13.45;;;;;;;-5.21;100.00;103184.47;5281795;28;20032;-75
2023/02/09 02:16:33;;;;;;;36.30;13.65;;;;;;;-5.19;100.00;103178.38;5276253;28;20030;-75
2023/02/09 02:19:34;;;;;;;35.67;13.23;;;;;;;-5.18;100.00;103178.34;5282685;28;20031;-75
2023/02/09 02:22:31;;;;;;;35.25;12.75;;;;;;;-5.16;100.00;103179.22;5267186;28;20081;-75
2023/02/09 02:25:18;;;;;;;29.50;11.80;;;;;;;-5.10;100.00;103179.19;5267098;28;20032;-75
2023/02/09 02:28:23;;;;;;;33.42;11.77;;;;;;;-4.93;100.00;103183.44;5278298;28;20084;-75
2023/02/09 02:31:05;;;;;;;35.40;13.00;;;;;;;-4.93;100.00;103175.59;5266805;28;20032;-75
2023/02/09 02:33:41;;;;;;;28.23;12.43;;;;;;;-5.00;100.00;103166.91;5271893;28;20126;-75
2023/02/09 02:36:34;;;;;;;28.60;12.57;;;;;;;-5.06;100.00;103170.44;5288462;28;20087;-75
2023/02/09 02:39:26;;;;;;;34.17;12.30;;;;;;;-5.04;100.00;103167.81;5267500;28;20035;-75
2023/02/09 02:45:02;;;;;;;31.50;13.18;;;;;;;-4.98;100.00;103165.13;5284576;28;20046;-75
2023/02/09 02:47:36;;;;;;;29.30;13.20;;;;;;;-5.02;100.00;103168.66;5288060;28;20092;-75
2023/02/09 02:50:13;;;;;;;31.58;12.57;;;;;;;-5.08;100.00;103166.06;5280111;28;20099;-76
2023/02/09 02:52:48;;;;;;;31.08;13.35;;;;;;;-5.13;100.00;103158.25;5269523;28;20090;-75
2023/02/09 02:55:21;;;;;;;34.67;13.25;;;;;;;-5.17;100.00;103155.66;5278240;28;20024;-75
2023/02/09 02:57:56;;;;;;;33.65;13.38;;;;;;;-5.22;100.00;103153.09;5284377;28;20028;-75
2023/02/09 03:00:29;;;;;;;;;;;;;;;-5.26;100.00;103159.22;5257522;28;20062;-75
2023/02/09 03:03:06;;;;;;;31.67;11.82;;;;;;;-5.29;100.00;103154.00;5273540;28;20497;-75
2023/02/09 03:05:37;;;;;;;28.58;12.65;;;;;;;-5.28;100.00;103150.50;5274448;28;20038;-75
2023/02/09 03:08:08;;;;;;;31.40;12.38;;;;;;;-5.28;100.00;103143.50;5278668;28;20032;-75
2023/02/09 03:10:40;;;;;;;32.30;12.82;;;;;;;-5.28;100.00;103145.25;5266633;28;20481;-75
2023/02/09 03:13:48;;;;;;;26.67;11.95;;;;;;;-5.31;100.00;103146.16;5276954;28;20028;-75
2023/02/09 03:16:37;;;;;;;;;;;;;;;-5.33;100.00;103147.03;5276333;28;20019;-75
2023/02/09 03:19:18;;;;;;;32.85;13.15;;;;;;;-5.36;100.00;103155.78;5268271;28;20272;-75
2023/02/09 03:21:55;;;;;;;24.70;10.45;;;;;;;-5.39;100.00;103145.31;5249277;28;20031;-75
2023/02/09 03:24:53;;;;;;;25.10;11.18;;;;;;;-5.39;100.00;103150.56;5276824;28;20026;-75
2023/02/09 03:27:27;;;;;;;36.72;11.88;;;;;;;-5.40;100.00;103150.56;5286937;28;20027;-75
2023/02/09 03:30:00;;;;;;;;;;;;;;;-5.42;100.00;103140.13;5274358;28;20560;-75
2023/02/09 03:32:40;;;;;;;26.30;10.60;;;;;;;-5.43;100.00;103133.13;5277404;28;19912;-75
2023/02/09 03:35:16;;;;;;;25.08;11.00;;;;;;;-5.43;100.00;103140.97;5284111;28;20472;-75
2023/02/09 03:37:46;;;;;;;24.85;10.57;;;;;;;-5.41;100.00;103138.38;5286828;28;20411;-75
2023/02/09 03:40:18;;;;;;;28.95;10.48;;;;;;;-5.41;100.00;103139.25;5279656;28;20092;-75
2023/02/09 03:42:48;;;;;;;26.02;11.52;;;;;;;-5.42;100.00;103131.38;5265713;28;20020;-75
2023/02/09 03:45:19;;;;;;;27.13;10.13;;;;;;;-5.43;100.00;103132.25;5273846;28;20030;-75
2023/02/09 03:47:49;;;;;;;28.27;12.00;;;;;;;-5.54;100.00;103116.63;5272978;28;20502;-74
2023/02/09 03:50:20;;;;;;;29.10;11.68;;;;;;;-5.61;100.00;103115.78;5277235;28;20024;-75
2023/02/09 03:52:50;;;;;;;27.63;11.45;;;;;;;-5.52;100.00;103125.34;5260821;28;20089;-75
2023/02/09 03:55:21;;;;;;;23.55;9.73;;;;;;;-5.34;100.00;103134.84;5275968;28;20028;-75
2023/02/09 03:57:51;;;;;;;25.10;9.25;;;;;;;-5.30;100.00;103136.56;5271959;28;20023;-76
2023/02/09 04:00:21;;;;;;;24.10;9.90;;;;;;;-5.31;100.00;103126.97;5256558;28;20020;-76
2023/02/09 04:02:52;;;;;;;24.75;11.15;;;;;;;-5.33;100.00;103123.47;5271036;28;20085;-74
2023/02/09 04:05:22;;;;;;;27.23;10.98;;;;;;;-5.40;100.00;103116.56;5273064;28;20119;-76
2023/02/09 04:07:53;;;;;;;24.48;9.90;;;;;;;-5.46;100.00;103117.47;5246623;28;20043;-75
2023/02/09 04:10:23;;;;;;;28.60;10.90;;;;;;;-5.30;100.00;103119.09;5278591;28;20125;-75
2023/02/09 04:12:54;;;;;;;25.10;10.35;;;;;;;-5.30;100.00;103107.78;5247100;28;20024;-75
2023/02/09 04:15:24;;;;;;;25.63;11.23;;;;;;;-5.39;100.00;103097.34;5260047;28;20106;-73
2023/02/09 04:17:55;;;;;;;22.80;10.02;;;;;;;-5.44;100.00;103101.75;5235482;28;20028;-75
2023/02/09 04:20:25;;;;;;;24.85;9.75;;;;;;;-5.50;100.00;103095.69;5246886;28;20473;-74
2023/02/09 04:22:56;;;;;;;24.20;9.55;;;;;;;-5.51;100.00;103088.72;5247318;28;20020;-75
2023/02/09 04:25:26;;;;;;;27.83;10.13;;;;;;;-5.50;100.00;103087.81;5269549;28;20104;-75
2023/02/09 04:27:57;;;;;;;19.48;9.00;;;;;;;-5.49;100.00;103081.72;5255501;28;20401;-74
2023/02/09 04:30:27;;;;;;;21.92;8.95;;;;;;;-5.48;100.00;103093.03;5278415;28;20146;-75
2023/02/09 04:32:58;;;;;;;22.30;9.80;;;;;;;-5.35;100.00;103086.00;5264953;28;20047;-75
2023/02/09 04:35:28;;;;;;;19.88;8.57;;;;;;;-5.27;100.00;103077.22;5271942;28;20035;-75
2023/02/09 04:37:59;;;;;;;25.95;9.82;;;;;;;-5.22;100.00;103074.59;5254000;28;20016;-75
2023/02/09 04:40:29;;;;;;;19.85;8.73;;;;;;;-5.20;100.00;103070.19;5250758;28;20115;-75
2023/02/09 04:43:00;;;;;;;23.27;9.05;;;;;;;-5.26;100.00;103067.63;5272356;28;20016;-75
2023/02/09 04:45:30;;;;;;;21.58;9.38;;;;;;;-5.35;100.00;103076.41;5267866;28;20031;-76
2023/02/09 04:48:01;;;;;;;24.58;8.32;;;;;;;-5.38;100.00;103067.69;5264309;28;20035;-75
2023/02/09 04:50:32;;;;;;;25.70;8.32;;;;;;;-5.32;100.00;103071.16;5275064;28;20161;-74
2023/02/09 04:53:03;;;;;;;26.75;9.52;;;;;;;-5.11;100.00;103082.34;5251583;28;20473;-75
2023/02/09 04:55:36;;;;;;;22.50;8.70;;;;;;;-4.98;100.00;103081.38;5280875;28;20039;-73
2023/02/09 05:01:00;;;;;;;22.42;8.15;;;;;;;-4.78;100.00;103078.56;5289557;28;20028;-74
2023/02/09 05:03:30;;;;;;;19.83;8.38;;;;;;;-4.67;100.00;103097.69;5289672;28;20050;-75
2023/02/09 05:06:03;;;;;;;18.65;7.22;;;;;;;-4.46;100.00;103100.13;5271509;28;20032;-75
2023/02/09 05:08:34;;;;;;;22.42;7.72;;;;;;;-4.37;100.00;103104.38;5263018;28;20400;-75
2023/02/09 05:11:05;;;;;;;22.50;8.18;;;;;;;-4.36;100.00;103103.53;5275522;28;20023;-75
2023/02/09 05:13:35;;;;;;;24.52;8.93;;;;;;;-4.41;100.00;103105.31;5271389;28;20481;-75
2023/02/09 05:16:08;;;;;;;22.88;8.07;;;;;;;-4.58;100.00;103091.50;5275868;28;20066;-74
2023/02/09 05:18:38;;;;;;;22.55;7.93;;;;;;;-4.69;100.00;103102.94;5274514;28;20035;-75
2023/02/09 05:21:09;;;;;;;18.23;7.43;;;;;;;-4.76;100.00;103090.78;5268789;28;20396;-75
2023/02/09 05:23:39;;;;;;;16.15;8.20;;;;;;;-4.79;100.00;103096.03;5264127;28;20052;-75
2023/02/09 05:26:10;;;;;;;21.17;7.10;;;;;;;-4.80;100.00;103098.69;5278564;28;20110;-74
2023/02/09 05:28:40;;;;;;;20.20;7.78;;;;;;;-4.79;100.00;103092.56;5289251;28;20066;-75
2023/02/09 05:31:11;;;;;;;19.80;8.10;;;;;;;-4.67;100.00;103097.69;5277638;28;20111;-75
2023/02/09 05:33:41;;;;;;;16.77;7.60;;;;;;;-4.63;100.00;103091.53;5263767;28;20468;-75
2023/02/09 05:36:11;;;;;;;20.73;8.20;;;;;;;-4.45;100.00;103112.34;5242221;28;20523;-75
2023/02/09 05:38:42;;;;;;;24.10;9.13;;;;;;;-4.29;100.00;103109.56;5267658;28;20373;-74
2023/02/09 05:44:03;;;;;;;21.45;8.77;;;;;;;-4.23;100.00;103127.84;5279330;28;20384;-75
2023/02/09 05:46:34;;;;;;;22.48;8.95;;;;;;;-4.36;100.00;103121.00;5270622;28;20024;-76
2023/02/09 05:49:04;;;;;;;22.30;7.85;;;;;;;-4.47;100.00;103127.22;5268011;28;20446;-73
2023/02/09 05:51:35;;;;;;;29.63;9.70;;;;;;;-4.62;100.00;103127.31;5273333;28;20028;-75
2023/02/09 05:54:05;;;;;;;22.90;8.75;;;;;;;-4.71;100.00;103136.16;5258234;28;20024;-75
2023/02/09 05:56:36;;;;;;;24.83;8.20;;;;;;;-4.77;100.00;103141.44;5280691;28;20457;-75
2023/02/09 05:59:07;;;;;;;22.15;9.15;;;;;;;-4.81;100.00;103131.88;5268846;28;20028;-75
2023/02/09 06:01:38;;;;;;;21.05;8.82;;;;;;;-4.90;100.00;103123.22;5245908;28;20086;-75
2023/02/09 06:04:09;;;;;;;25.10;9.25;;;;;;;-5.02;100.00;103121.53;5281320;28;20024;-74
2023/02/09 06:06:39;;;;;;;26.38;7.88;;;;;;;-5.17;100.00;103117.31;5259735;28;20024;-75
2023/02/09 06:09:11;;;;;;;20.55;7.72;;;;;;;-5.26;100.00;103117.34;5288403;28;20038;-75
2023/02/09 06:11:41;;;;;;;20.55;7.60;;;;;;;-5.31;100.00;103111.28;5259002;28;20495;-75
2023/02/09 06:14:12;;;;;;;21.35;7.85;;;;;;;-5.34;100.00;103095.59;5262806;28;20024;-74
2023/02/09 06:16:43;;;;;;;21.88;8.23;;;;;;;-5.44;100.00;103096.50;5249231;28;20024;-75
2023/02/09 06:19:16;;;;;;;24.13;8.68;;;;;;;-5.49;100.00;103089.56;5249546;28;20020;-74
2023/02/09 06:21:47;;;;;;;23.35;7.88;;;;;;;-5.50;100.00;103093.06;5263586;28;20023;-76
2023/02/09 06:24:17;;;;;;;23.75;9.23;;;;;;;-5.38;100.00;103094.72;5288690;28;20590;-76
2023/02/09 06:26:48;;;;;;;29.70;9.43;;;;;;;-5.16;100.00;103090.25;5253843;28;20552;-75
2023/02/09 06:29:18;;;;;;;27.15;9.10;;;;;;;-5.04;100.00;103092.75;5267347;28;20035;-75
2023/02/09 06:31:48;;;;;;;28.15;10.43;;;;;;;-4.89;100.00;103102.25;5283657;28;20027;-76
2023/02/09 06:34:19;;;;;;;36.38;11.98;;;;;;;-4.75;100.00;103116.09;5259760;28;20059;-76
2023/02/09 06:36:49;;;;;;;26.75;8.88;;;;;;;-4.68;100.00;103120.38;5285090;28;20024;-74
2023/02/09 06:39:20;;;;;;;26.23;9.35;;;;;;;-4.63;100.00;103120.34;5287962;28;20028;-75
2023/02/09 06:41:51;;;;;;;22.77;8.85;;;;;;;-4.62;100.00;103124.69;5250805;28;20016;-75
2023/02/09 06:44:21;;;;;;;25.23;9.43;;;;;;;-4.60;100.00;103132.56;5249327;28;20056;-76
2023/02/09 06:46:52;;;;;;;23.73;9.82;;;;;;;-4.50;100.00;103129.84;5280319;28;20035;-75
2023/02/09 06:49:24;;;;;;;29.35;10.60;;;;;;;-4.34;100.00;103122.72;5249127;28;20024;-75
2023/02/09 06:51:54;;;;;;;28.27;10.10;;;;;;;-4.26;100.00;103135.75;5248411;28;20028;-75
2023/02/09 06:54:27;;;;;;;23.75;9.68;;;;;;;-4.17;100.00;103135.63;5250701;28;20031;-76
2023/02/09 06:56:57;;;;;;;27.98;10.43;;;;;;;-4.10;100.00;103137.31;5269619;28;20438;-76
2023/02/09 06:59:28;;;;;;;24.77;10.18;;;;;;;-4.02;100.00;103160.81;5255451;28;20023;-76
2023/02/09 07:01:58;;;;;;;28.92;9.50;;;;;;;-3.91;100.00;103162.47;5248916;28;20016;-74
2023/02/09 07:04:29;;;;;;;29.17;10.07;;;;;;;-3.80;100.00;103164.09;5280036;28;20028;-75
2023/02/09 07:06:59;;;;;;;28.27;10.45;;;;;;;-3.74;100.00;103174.50;5248343;28;20461;-76
2023/02/09 07:09:29;;;;;;;32.60;10.43;;;;;;;-3.73;100.00;103182.34;5248098;28;20028;-75
2023/02/09 07:12:00;;;;;;;32.30;10.02;;;;;;;-3.72;100.00;103183.22;5262337;28;20016;-77
2023/02/09 07:14:30;;;;;;;27.42;9.77;;;;;;;-3.77;100.00;103182.41;5260770;28;20159;-75
2023/02/09 07:17:01;;;;;;;28.35;10.65;;;;;;;-3.83;100.00;103185.09;5250347;28;20020;-77
2023/02/09 07:19:31;;;;;;;34.72;10.70;;;;;;;-3.89;100.00;103180.78;5278124;28;20024;-76
2023/02/09 07:22:02;;;;;;;28.55;10.98;;;;;;;-3.88;100.00;103189.53;5266332;28;20461;-76
2023/02/09 07:24:32;;;;;;;25.13;9.02;;;;;;;-3.84;100.00;103201.72;5259031;28;20042;-76
2023/02/09 07:27:04;;;;;;;24.55;10.70;;;;;;;-3.77;100.00;103203.38;5287238;28;20027;-71
2023/02/09 07:29:34;;;;;;;25.67;10.40;;;;;;;-3.72;100.00;103209.44;5287509;28;20024;-72
2023/02/09 07:32:06;;;;;;;28.92;11.63;;;;;;;-3.67;100.00;103208.50;5267770;28;20024;-72
2023/02/09 07:34:37;;;;;;;29.33;10.73;;;;;;;-3.61;100.00;103204.06;5266532;28;20028;-72
2023/02/09 07:37:07;;;;;;;28.95;10.68;;;;;;;-3.55;100.00;103201.41;5279754;28;20054;-72
2023/02/09 07:39:38;;;;;;;33.08;10.70;;;;;;;-3.47;100.00;103213.53;5265736;28;20491;-72
2023/02/09 07:42:08;;;;;;;25.75;10.73;;;;;;;-3.33;100.00;103204.63;5266102;28;20024;-73
2023/02/09 07:44:38;;;;;;;29.30;11.52;;;;;;;-3.21;100.00;103197.47;5266383;28;20274;-73
2023/02/09 07:47:09;;;;;;;41.58;12.57;;;;;;;-3.11;100.00;103190.34;5265795;28;20016;-73
2023/02/09 07:49:39;;;;;;;28.27;11.85;;;;;;;-2.97;100.00;103184.88;5265721;28;20027;-72
2023/02/09 07:52:10;;;;;;;28.17;11.30;;;;;;;-2.83;100.00;103184.69;5265403;28;20035;-73
2023/02/09 07:54:41;;;;;;;28.83;10.75;;;;;;;-2.77;100.00;103174.06;5252625;28;20042;-73
2023/02/09 07:57:12;;;;;;;31.83;11.85;;;;;;;-2.62;100.00;103179.94;5286734;28;20027;-73
2023/02/09 07:59:43;;;;;;;26.63;10.50;;;;;;;-2.35;100.00;103191.78;5280204;28;20461;-73
2023/02/09 08:02:23;;;;;;;25.92;11.18;;;;;;;-2.12;100.00;103186.09;5247647;28;20028;-73
2023/02/09 08:04:57;;;;;;;25.92;10.77;;;;;;;-1.94;100.00;103187.53;5266017;28;20035;-72
2023/02/09 08:07:28;;;;;;;28.48;11.52;;;;;;;-1.80;100.00;103195.19;5269061;28;20035;-72
2023/02/09 08:09:59;;;;;;;29.65;11.20;;;;;;;-1.65;100.00;103194.88;5286482;28;20110;-73
2023/02/09 08:15:21;;;;;;;23.17;9.55;;;;;;;-1.18;100.00;103194.78;5272986;28;20560;-74
2023/02/09 08:17:55;;;;;;;24.95;10.45;;;;;;;-1.00;100.00;103198.78;5277173;28;20020;-73
2023/02/09 08:20:28;;;;;;;24.90;8.88;;;;;;;-0.81;100.00;103193.03;5279063;28;20051;-73
2023/02/09 08:23:06;;;;;;;29.15;10.75;;;;;;;-0.70;100.00;103186.66;5265342;28;20077;-73
2023/02/09 08:25:38;;;;;;;27.27;10.38;;;;;;;-0.47;100.00;103180.84;5264910;28;20061;-73
2023/02/09 08:28:09;;;;;;;26.10;10.20;;;;;;;-0.24;100.00;103186.41;5264698;28;20043;-73
2023/02/09 08:30:39;;;;;;;24.02;10.15;;;;;;;-0.16;100.00;103176.50;5265078;28;20023;-73
2023/02/09 08:33:10;;;;;;;26.98;10.50;;;;;;;-0.14;100.00;103185.25;5241160;28;20121;-74
2023/02/09 08:35:41;;;;;;;20.88;9.43;;;;;;;-0.04;100.00;103172.69;5274053;28;20026;-74
2023/02/09 08:38:11;;;;;;;25.90;10.38;;;;;;;0.15;100.00;103184.50;5269374;28;20045;-74
2023/02/09 08:40:43;;;;;;;21.60;10.50;;;;;;;0.37;100.00;103190.03;5247015;28;20103;-73
2023/02/09 08:43:13;;;;;;;24.45;10.48;;;;;;;0.47;100.00;103185.34;5268687;28;20020;-73
2023/02/09 08:45:43;;;;;;;22.13;9.75;;;;;;;0.69;100.00;103190.84;5286163;28;20027;-74
2023/02/09 08:48:14;;;;;;;25.63;10.88;;;;;;;0.85;100.00;103194.78;5272329;28;20023;-73
2023/02/09 08:50:44;;;;;;;23.65;10.45;;;;;;;0.88;100.00;103197.34;5273100;28;20437;-73
2023/02/09 08:53:15;;;;;;;25.00;10.55;;;;;;;0.90;100.00;103194.63;5278322;28;20028;-74
2023/02/09 08:55:47;;;;;;;24.48;11.00;;;;;;;0.78;100.00;103190.59;5264967;28;20104;-75
2023/02/09 08:58:18;;;;;;;26.55;10.20;;;;;;;0.76;100.00;103208.28;5271934;28;20536;-74
2023/02/09 09:00:48;;;;;;;26.63;10.70;;;;;;;0.92;100.00;103206.91;5267080;28;20153;-74
2023/02/09 09:03:19;;;;;;;28.17;10.13;;;;;;;1.12;100.00;103192.22;5286022;28;20034;-74
2023/02/09 09:05:49;;;;;;;25.25;10.65;;;;;;;1.09;100.00;103181.72;5282622;28;20024;-73
2023/02/09 09:08:20;;;;;;;22.30;10.30;;;;;;;1.22;100.00;103170.72;5264609;28;20094;-74
2023/02/09 09:10:50;;;;;;;27.55;10.40;;;;;;;1.19;100.00;103185.81;5278830;28;20024;-74
2023/02/09 09:13:23;;;;;;;25.48;10.68;;;;;;;1.45;100.00;103190.25;5277391;28;20096;-74
2023/02/09 09:15:54;;;;;;;25.33;10.27;;;;;;;1.67;100.00;103188.66;5273915;28;20115;-74
2023/02/09 09:18:25;;;;;;;22.85;9.68;;;;;;;1.53;100.00;103196.16;5257192;28;20059;-74
2023/02/09 09:20:56;;;;;;;24.70;10.32;;;;;;;1.75;100.00;103196.31;5286680;28;20020;-74
2023/02/09 09:23:26;;;;;;;26.25;10.52;;;;;;;1.80;100.00;103187.28;5265430;28;20026;-74
2023/02/09 09:26:13;;;;;;;20.05;10.10;;;;;;;2.15;100.00;103197.56;5274141;28;20035;-74
2023/02/09 09:28:44;;;;;;;46.40;20.00;;;;;;;2.53;100.00;103205.00;5280770;28;20026;-74
2023/02/09 09:31:16;;;;;;;33.13;16.98;;;;;;;2.61;100.00;103210.03;5264771;28;20411;-74
2023/02/09 09:33:46;;;;;;;25.17;12.35;;;;;;;2.70;100.00;103219.41;5264964;28;20024;-74
2023/02/09 09:36:19;;;;;;;23.95;11.35;;;;;;;2.65;100.00;103216.06;5246833;28;20031;-74
2023/02/09 09:38:50;;;;;;;26.13;10.77;;;;;;;2.63;100.00;103226.75;5266799;28;20024;-74
2023/02/09 09:41:25;;;;;;;23.58;10.40;;;;;;;2.57;100.00;103214.59;5282217;28;20022;-75
2023/02/09 09:43:56;;;;;;;25.00;10.73;;;;;;;2.42;100.00;103203.69;5268889;28;20024;-75
2023/02/09 09:46:36;;;;;;;31.92;11.38;;;;;;;2.71;100.00;103202.56;5268228;28;20052;-75
2023/02/09 09:49:18;;;;;;;20.50;10.00;;;;;;;2.92;100.00;103203.56;5268170;28;20055;-74
2023/02/09 09:51:56;;;;;;;28.52;10.77;;;;;;;3.41;100.00;103217.53;5250617;28;20406;-75
2023/02/09 09:54:30;;;;;;;21.58;9.85;;;;;;;3.32;100.00;103219.66;5268287;28;20117;-74
2023/02/09 09:57:01;;;;;;;26.23;11.20;;;;;;;3.10;100.00;103211.66;5268060;28;20494;-74
2023/02/09 09:59:37;;;;;;;27.52;10.73;;;;;;;3.13;100.00;103209.81;5286204;28;20106;-74
2023/02/09 10:02:22;;;;;;;21.30;9.95;;;;;;;3.26;100.00;103211.94;5288969;28;20426;-75
2023/02/09 10:04:58;;;;;;;23.20;10.30;;;;;;;3.19;100.00;103212.22;5277050;28;20063;-75
2023/02/09 10:07:30;;;;;;;26.08;10.82;;;;;;;3.30;100.00;103210.00;5288074;28;20039;-75
2023/02/09 10:10:09;;;;;;;22.83;10.35;;;;;;;3.38;100.00;103219.38;5277788;28;20028;-75
2023/02/09 10:12:47;;;;;;;32.10;12.00;;;;;;;3.55;100.00;103234.63;5267464;28;20069;-75
2023/02/09 10:15:33;;;;;;;28.15;11.48;;;;;;;3.72;100.00;103218.00;5282030;28;20067;-75
2023/02/09 10:18:12;;;;;;;28.52;11.35;;;;;;;3.89;100.00;103218.16;5277642;28;20077;-75
2023/02/09 10:21:03;;;;;;;23.40;11.13;;;;;;;3.64;100.00;103230.72;5267498;28;20059;-75
2023/02/09 10:24:03;;;;;;;31.48;11.30;;;;;;;3.51;100.00;103226.84;5281102;28;20030;-75
2023/02/09 10:26:35;;;;;;;28.05;11.15;;;;;;;3.59;100.00;103227.41;5280823;28;20293;-75
2023/02/09 10:29:20;;;;;;;26.30;10.90;;;;;;;3.54;100.00;103224.06;5267617;28;20038;-75
2023/02/09 10:32:10;;;;;;;25.50;11.93;;;;;;;3.70;100.00;103237.56;5267582;28;20028;-75
2023/02/09 10:34:45;;;;;;;25.48;11.50;;;;;;;3.81;100.00;103232.69;5267429;28;20103;-75
2023/02/09 10:37:34;;;;;;;30.40;12.02;;;;;;;3.98;100.00;103232.84;5267741;28;20024;-75
2023/02/09 10:40:14;;;;;;;33.95;12.02;;;;;;;4.23;100.00;103229.13;5267462;28;20081;-74
2023/02/09 10:42:58;;;;;;;27.35;11.38;;;;;;;4.27;100.00;103226.28;5281294;28;20031;-75
2023/02/09 10:45:37;;;;;;;26.58;10.40;;;;;;;4.24;100.00;103226.41;5267713;28;20022;-75
2023/02/09 10:48:24;;;;;;;28.80;10.95;;;;;;;4.35;100.00;103242.72;5280882;28;20481;-75
2023/02/09 10:50:59;;;;;;;28.00;12.48;;;;;;;4.45;100.00;103245.00;5266298;28;20027;-75
2023/02/09 10:53:34;;;;;;;33.03;12.23;;;;;;;4.44;100.00;103244.13;5266678;28;20107;-75
2023/02/09 10:56:13;;;;;;;26.00;11.40;;;;;;;4.63;100.00;103254.81;5284697;28;20480;-75
2023/02/09 10:59:03;;;;;;;30.35;11.60;;;;;;;4.62;100.00;103248.63;5287725;28;20016;-75
2023/02/09 11:01:40;;;;;;;26.17;11.98;;;;;;;4.78;100.00;103247.94;5267277;28;20484;-75
2023/02/09 11:04:38;;;;;;;28.88;12.38;;;;;;;4.93;100.00;103248.09;5280818;28;20027;-75
2023/02/09 11:07:12;;;;;;;28.83;12.15;;;;;;;5.15;100.00;103258.59;5280456;28;20020;-75
2023/02/09 11:09:46;;;;;;;30.27;13.05;;;;;;;5.32;100.00;103262.22;5275656;28;20185;-75
2023/02/09 11:12:21;;;;;;;28.10;12.13;;;;;;;5.53;100.00;103258.56;5271698;28;20385;-75
2023/02/09 11:14:51;;;;;;;31.13;12.70;;;;;;;5.66;100.00;103250.81;5267290;28;20111;-75
2023/02/09 11:17:28;;;;;;;34.45;12.80;;;;;;;5.35;100.00;103251.44;5252967;28;20020;-78
2023/02/09 11:20:19;;;;;;;30.42;12.73;;;;;;;5.30;100.00;103248.16;5287925;28;20373;-75
2023/02/09 11:23:10;;;;;;;31.13;13.27;;;;;;;5.68;100.00;103246.28;5267198;28;20036;-75
2023/02/09 11:25:47;;;;;;;35.13;13.25;;;;;;;5.85;100.00;103237.44;5266856;28;20012;-74
2023/02/09 11:28:36;;;;;;;29.73;12.60;;;;;;;5.85;100.00;103238.31;5279908;28;20081;-77
2023/02/09 11:31:23;;;;;;;30.30;12.98;;;;;;;5.78;100.00;103242.22;5277460;28;20465;-76
2023/02/09 11:34:18;;;;;;;32.70;13.95;;;;;;;5.61;100.00;103234.19;5267339;28;20020;-76
2023/02/09 11:37:26;;;;;;;33.38;14.43;;;;;;;5.70;100.00;103236.41;5283832;28;20019;-75
2023/02/09 11:40:07;;;;;;;32.97;14.02;;;;;;;5.72;100.00;103245.19;5270618;28;20024;-75
2023/02/09 11:42:45;;;;;;;28.92;13.07;;;;;;;5.21;100.00;103244.13;5266557;28;20447;-75
2023/02/09 11:45:26;;;;;;;32.72;14.05;;;;;;;5.45;100.00;103250.06;5280092;28;20295;-75
2023/02/09 11:48:20;;;;;;;33.28;13.43;;;;;;;5.54;100.00;103243.44;5279764;28;20027;-75
2023/02/09 11:50:51;;;;;;;32.75;14.50;;;;;;;5.57;100.00;103228.19;5266135;28;20056;-75
2023/02/09 11:53:30;;;;;;;32.47;14.13;;;;;;;5.68;100.00;103233.84;5265787;28;20066;-75